Aberdeen, Mississippi
Current Conditions -  °F | °C
As of 10:55 AM on Tuesday 27 Jan 2015 (Local Time) from KM40 Reporting Station
Clear Clear  
Wind Chill: 57°   Ceiling: Unl
Heat Index: 57°   Visibility: 9mi
Dew Point: 43°   Wind: 14mph
Humidity: 59%   Direction: 340°NNW
Pressure: 30.1"   Gusts: 18mph
Location:  33.82°N, 88.54°W
Report Text: KM40 271655Z AUTO 34012G16KT 9SM CLR 14/06 A3010 RMK AO2
Loading
Personal Weather Stations






























Interactive Weather Map New forecast layout! Learn more

10-Day Weather Forecast

Advertisements
Track Severe Weather on mobile